Time;durP1;ratioP1;P1;durP2;ratioP2;P2;SDS_P1;SDS_P2;PMS_P1;PMS_P2;Temp;Humidity;BMP_temperature;BMP_pressure;BME280_temperature;BME280_humidity;BME280_pressure;Samples;Min_cycle;Max_cycle;Signal;HPM_P1;HPM_P2
2021/11/19 00:01:18;;;;;;;;;;;3.20;55.20;;;;;;4374775;32;20525;-43
2021/11/19 00:03:44;;;;;;;;;;;3.20;55.30;;;;;;4374944;32;20038;-44
2021/11/19 00:06:11;;;;;;;;;;;3.20;55.30;;;;;;4374335;32;19976;-43
2021/11/19 00:08:37;;;;;;;;;;;3.20;55.40;;;;;;4374950;32;19981;-43
2021/11/19 00:11:06;;;;;;;;;;;3.20;55.80;;;;;;4374572;32;19981;-42
2021/11/19 00:13:32;;;;;;;;;;;3.20;55.90;;;;;;4374326;32;20440;-43
2021/11/19 00:15:58;;;;;;;;;;;3.10;55.50;;;;;;4374301;32;20042;-40
2021/11/19 00:18:25;;;;;;;;;;;3.10;55.60;;;;;;4375132;32;20394;-44
2021/11/19 00:20:51;;;;;;;;;;;3.10;55.50;;;;;;4374540;32;20355;-43
2021/11/19 00:23:17;;;;;;;;;;;3.10;55.70;;;;;;4372646;32;19972;-43
2021/11/19 00:25:44;;;;;;;;;;;3.10;55.70;;;;;;4374179;32;19994;-44
2021/11/19 00:28:10;;;;;;;;;;;3.20;55.80;;;;;;4374165;32;19990;-43
2021/11/19 00:30:38;;;;;;;;;;;3.20;56.00;;;;;;4372527;32;20069;-43
2021/11/19 00:33:04;;;;;;;;;;;3.20;55.90;;;;;;4373086;32;19981;-42
2021/11/19 00:35:31;;;;;;;;;;;3.10;55.50;;;;;;4374025;32;20066;-39
2021/11/19 00:37:57;;;;;;;;;;;3.10;55.60;;;;;;4383314;32;19997;-44
2021/11/19 00:40:46;;;;;;;;;;;3.10;55.60;;;;;;4389101;32;20433;-41
2021/11/19 00:43:12;;;;;;;;;;;3.00;55.60;;;;;;4388297;32;20389;-43
2021/11/19 00:45:38;;;;;;;;;;;3.00;55.80;;;;;;4389173;32;20451;-44
2021/11/19 00:48:05;;;;;;;;;;;2.90;55.50;;;;;;4389134;32;19966;-42
2021/11/19 00:50:53;;;;;;;;;;;2.90;55.60;;;;;;4388904;32;19984;-38
2021/11/19 00:53:19;;;;;;;;;;;2.90;55.80;;;;;;4389277;32;19966;-43
2021/11/19 00:55:45;;;;;;;;;;;2.90;55.90;;;;;;4389258;32;19966;-44
2021/11/19 00:58:12;;;;;;;;;;;2.90;55.70;;;;;;4388644;32;19962;-42
2021/11/19 01:00:53;;;;;;;;;;;2.90;55.80;;;;;;4388598;32;19992;-41
2021/11/19 01:03:20;;;;;;;;;;;2.90;55.70;;;;;;4389051;32;19970;-41
2021/11/19 01:05:48;;;;;;;;;;;2.80;55.80;;;;;;4388708;32;19996;-42
2021/11/19 01:08:14;;;;;;;;;;;2.80;55.70;;;;;;4388633;32;19968;-43
2021/11/19 01:10:40;;;;;;;;;;;2.80;55.90;;;;;;4388279;32;20092;-43
2021/11/19 01:13:07;;;;;;;;;;;2.90;56.10;;;;;;4374495;32;19977;-43
2021/11/19 01:15:35;;;;;;;;;;;2.90;56.20;;;;;;4389004;32;20085;-40
2021/11/19 01:18:12;;;;;;;;;;;2.90;56.30;;;;;;4388973;32;19973;-43
2021/11/19 01:20:45;;;;;;;;;;;2.90;56.00;;;;;;4381528;32;19969;-43
2021/11/19 01:23:13;;;;;;;;;;;2.90;55.30;;;;;;4360438;32;19963;-41
2021/11/19 01:25:42;;;;;;;;;;;2.80;55.40;;;;;;4373609;32;20079;-43
2021/11/19 01:28:09;;;;;;;;;;;2.80;55.80;;;;;;4373554;32;20398;-42
2021/11/19 01:30:44;;;;;;;;;;;2.80;55.90;;;;;;4373497;32;20069;-45
2021/11/19 01:33:11;;;;;;;;;;;2.70;55.80;;;;;;4373463;32;19977;-42
2021/11/19 01:35:37;;;;;;;;;;;2.70;56.00;;;;;;4373371;32;20042;-43
2021/11/19 01:38:04;;;;;;;;;;;2.70;55.80;;;;;;4373455;32;19973;-41
2021/11/19 01:40:32;;;;;;;;;;;2.70;55.90;;;;;;4373848;32;19973;-42
2021/11/19 01:43:02;;;;;;;;;;;2.60;55.70;;;;;;4359386;32;19978;-42
2021/11/19 01:45:34;;;;;;;;;;;2.60;55.80;;;;;;4373387;32;19962;-42
2021/11/19 01:48:00;;;;;;;;;;;2.60;55.90;;;;;;4373394;32;20021;-43
2021/11/19 01:50:38;;;;;;;;;;;2.60;56.20;;;;;;4373212;32;19974;-43
2021/11/19 01:53:37;;;;;;;;;;;2.50;56.10;;;;;;4373254;32;19978;-39
2021/11/19 01:56:12;;;;;;;;;;;2.50;56.10;;;;;;4361129;32;19997;-42
2021/11/19 01:58:51;;;;;;;;;;;2.50;56.10;;;;;;4373218;32;20037;-43
2021/11/19 02:01:23;;;;;;;;;;;2.50;55.80;;;;;;4372768;32;19972;-38
2021/11/19 02:03:54;;;;;;;;;;;2.50;55.80;;;;;;4373226;32;20066;-43
2021/11/19 02:06:23;;;;;;;;;;;2.50;55.80;;;;;;4373113;32;19973;-41
2021/11/19 02:08:50;;;;;;;;;;;2.50;55.70;;;;;;4372862;32;20459;-42
2021/11/19 02:11:39;;;;;;;;;;;2.50;55.60;;;;;;4358746;32;19965;-43
2021/11/19 02:14:15;;;;;;;;;;;2.50;55.40;;;;;;4371546;32;19979;-42
2021/11/19 02:17:00;;;;;;;;;;;2.40;55.40;;;;;;4359144;32;19962;-42
2021/11/19 02:19:31;;;;;;;;;;;2.40;55.50;;;;;;4372842;32;20009;-42
2021/11/19 02:22:00;;;;;;;;;;;2.40;55.40;;;;;;4359011;32;20014;-42
2021/11/19 02:24:36;;;;;;;;;;;2.40;55.20;;;;;;4358736;32;20057;-43
2021/11/19 02:27:09;;;;;;;;;;;2.40;55.40;;;;;;4373012;32;20418;-43
2021/11/19 02:29:47;;;;;;;;;;;2.40;55.40;;;;;;4373170;32;19966;-41
2021/11/19 02:32:18;;;;;;;;;;;2.30;55.50;;;;;;4375821;32;19988;-42
2021/11/19 02:34:44;;;;;;;;;;;2.30;55.60;;;;;;4362302;32;19970;-42
2021/11/19 02:37:33;;;;;;;;;;;2.30;56.30;;;;;;4375208;32;20013;-42
2021/11/19 02:40:05;;;;;;;;;;;2.20;55.60;;;;;;4362257;32;20146;-44
2021/11/19 02:42:37;;;;;;;;;;;2.20;55.60;;;;;;4375937;32;19966;-43
2021/11/19 02:45:09;;;;;;;;;;;2.10;55.70;;;;;;4375824;32;20452;-43
2021/11/19 02:47:35;;;;;;;;;;;2.10;55.80;;;;;;4375512;32;20008;-38
2021/11/19 02:50:02;;;;;;;;;;;2.20;55.80;;;;;;4375766;32;19968;-40
2021/11/19 02:52:32;;;;;;;;;;;2.20;55.80;;;;;;4375493;32;20017;-43
2021/11/19 02:54:59;;;;;;;;;;;2.10;56.00;;;;;;4361948;32;19989;-42
2021/11/19 02:57:25;;;;;;;;;;;2.10;55.90;;;;;;4375353;32;19985;-43
2021/11/19 02:59:52;;;;;;;;;;;2.10;56.00;;;;;;4375626;32;19969;-43
2021/11/19 03:02:22;;;;;;;;;;;2.10;55.90;;;;;;4375126;32;20002;-42
2021/11/19 03:04:54;;;;;;;;;;;2.10;55.90;;;;;;4361029;32;20029;-39
2021/11/19 03:07:21;;;;;;;;;;;2.10;56.10;;;;;;4374688;32;19973;-43
2021/11/19 03:09:50;;;;;;;;;;;2.10;56.00;;;;;;4374968;32;20402;-42
2021/11/19 03:12:18;;;;;;;;;;;2.10;55.80;;;;;;4374993;32;20529;-43
2021/11/19 03:14:46;;;;;;;;;;;2.10;55.70;;;;;;4375143;32;20009;-43
2021/11/19 03:17:12;;;;;;;;;;;2.10;55.60;;;;;;4361691;32;20444;-43
2021/11/19 03:19:39;;;;;;;;;;;2.10;55.80;;;;;;4375415;32;19962;-42
2021/11/19 03:22:05;;;;;;;;;;;2.10;55.70;;;;;;4360933;32;20380;-42
2021/11/19 03:24:31;;;;;;;;;;;2.00;55.70;;;;;;4375034;32;19973;-42
2021/11/19 03:26:57;;;;;;;;;;;2.00;55.70;;;;;;4360840;32;19966;-45
2021/11/19 03:29:24;;;;;;;;;;;1.90;55.90;;;;;;4374877;32;20090;-46
2021/11/19 03:31:50;;;;;;;;;;;1.90;56.00;;;;;;4348603;32;20045;-44
2021/11/19 03:34:17;;;;;;;;;;;1.90;56.00;;;;;;4374759;32;20050;-43
2021/11/19 03:36:46;;;;;;;;;;;1.90;56.00;;;;;;4374429;32;20371;-43
2021/11/19 03:39:13;;;;;;;;;;;1.90;55.80;;;;;;4374944;32;20046;-42
2021/11/19 03:41:40;;;;;;;;;;;1.90;55.80;;;;;;4374845;32;19986;-43
2021/11/19 03:44:21;;;;;;;;;;;1.80;55.80;;;;;;4375028;32;20367;-43
2021/11/19 03:47:11;;;;;;;;;;;1.80;55.70;;;;;;4374938;32;19970;-41
2021/11/19 03:49:37;;;;;;;;;;;1.70;55.70;;;;;;4321691;33;20030;-45
2021/11/19 03:52:10;;;;;;;;;;;1.70;56.10;;;;;;4327642;33;20084;-43
2021/11/19 03:54:37;;;;;;;;;;;1.70;56.30;;;;;;4327641;33;20030;-44
2021/11/19 03:57:04;;;;;;;;;;;1.70;56.40;;;;;;4327509;33;19987;-43
2021/11/19 03:59:31;;;;;;;;;;;1.70;56.30;;;;;;4327847;33;19983;-43
2021/11/19 04:01:57;;;;;;;;;;;1.70;56.00;;;;;;4327544;33;20423;-44
2021/11/19 04:04:25;;;;;;;;;;;1.70;56.00;;;;;;4327490;33;19995;-43
2021/11/19 04:06:52;;;;;;;;;;;1.70;56.00;;;;;;4327356;33;19990;-42
2021/11/19 04:09:18;;;;;;;;;;;1.70;55.50;;;;;;4326946;33;20125;-42
2021/11/19 04:11:44;;;;;;;;;;;1.70;55.00;;;;;;4327538;33;19979;-43
2021/11/19 04:14:11;;;;;;;;;;;1.60;54.80;;;;;;4327895;33;20431;-43
2021/11/19 04:16:40;;;;;;;;;;;1.60;55.00;;;;;;4327533;33;20046;-43
2021/11/19 04:19:07;;;;;;;;;;;1.50;55.10;;;;;;4327015;33;19974;-43
2021/11/19 04:21:34;;;;;;;;;;;1.50;55.10;;;;;;4339722;33;20418;-42
2021/11/19 04:24:01;;;;;;;;;;;1.50;55.10;;;;;;4341921;33;20033;-43
2021/11/19 04:26:27;;;;;;;;;;;1.50;55.20;;;;;;4353840;32;19996;-44
2021/11/19 04:28:54;;;;;;;;;;;1.50;55.30;;;;;;4389089;32;19980;-43
2021/11/19 04:31:23;;;;;;;;;;;1.50;55.20;;;;;;4389210;32;19966;-38
2021/11/19 04:33:50;;;;;;;;;;;1.50;55.20;;;;;;4388949;32;20010;-40
2021/11/19 04:36:16;;;;;;;;;;;1.60;55.40;;;;;;4388851;32;20012;-42
2021/11/19 04:38:42;;;;;;;;;;;1.50;55.20;;;;;;4389424;32;20394;-41
2021/11/19 04:41:09;;;;;;;;;;;1.60;55.30;;;;;;4388896;32;19988;-42
2021/11/19 04:43:38;;;;;;;;;;;1.50;55.10;;;;;;4375249;32;20425;-43
2021/11/19 04:46:05;;;;;;;;;;;1.50;55.30;;;;;;4388987;32;20005;-41
2021/11/19 04:48:34;;;;;;;;;;;1.50;55.40;;;;;;4362493;32;19991;-42
2021/11/19 04:51:02;;;;;;;;;;;1.50;55.30;;;;;;4388958;32;20418;-43
2021/11/19 04:53:29;;;;;;;;;;;1.50;55.60;;;;;;4374169;32;19961;-42
2021/11/19 04:55:55;;;;;;;;;;;1.50;55.80;;;;;;4388812;32;19961;-40
2021/11/19 04:58:22;;;;;;;;;;;1.50;55.90;;;;;;4388931;32;19958;-43
2021/11/19 05:01:22;;;;;;;;;;;1.60;55.90;;;;;;4388636;32;20371;-44
2021/11/19 05:03:48;;;;;;;;;;;1.60;56.00;;;;;;4388682;32;20403;-42
2021/11/19 05:06:15;;;;;;;;;;;1.60;56.20;;;;;;4389063;32;19989;-43
2021/11/19 05:08:41;;;;;;;;;;;1.70;56.40;;;;;;4374509;32;19969;-40
2021/11/19 05:11:10;;;;;;;;;;;1.70;56.40;;;;;;4388722;32;19986;-44
2021/11/19 05:13:36;;;;;;;;;;;1.80;56.40;;;;;;4388377;32;20499;-44
2021/11/19 05:16:04;;;;;;;;;;;1.80;56.40;;;;;;4388412;32;20049;-40
2021/11/19 05:18:31;;;;;;;;;;;1.90;56.40;;;;;;4388545;32;19977;-43
2021/11/19 05:20:57;;;;;;;;;;;2.00;56.20;;;;;;4379387;32;19978;-42
2021/11/19 05:23:24;;;;;;;;;;;2.00;56.00;;;;;;4373438;32;20013;-43
2021/11/19 05:25:50;;;;;;;;;;;2.10;55.90;;;;;;4359377;32;20474;-42
2021/11/19 05:28:18;;;;;;;;;;;2.10;55.70;;;;;;4373526;32;19965;-38
2021/11/19 05:30:44;;;;;;;;;;;2.20;55.60;;;;;;4373698;32;19970;-42
2021/11/19 05:33:13;;;;;;;;;;;2.20;55.20;;;;;;4372909;32;19970;-43
2021/11/19 05:35:59;;;;;;;;;;;2.20;54.80;;;;;;4373178;32;19985;-41
2021/11/19 05:38:26;;;;;;;;;;;2.30;54.80;;;;;;4358906;32;20033;-43
2021/11/19 05:40:53;;;;;;;;;;;2.30;54.60;;;;;;4373074;32;20030;-42
2021/11/19 05:43:19;;;;;;;;;;;2.20;54.40;;;;;;4373394;32;19965;-41
2021/11/19 05:45:45;;;;;;;;;;;2.30;55.00;;;;;;4373198;32;20403;-43
2021/11/19 05:48:11;;;;;;;;;;;2.30;54.30;;;;;;4372998;32;19970;-42
2021/11/19 05:50:41;;;;;;;;;;;2.30;54.30;;;;;;4373276;32;20397;-42
2021/11/19 05:53:08;;;;;;;;;;;2.30;54.30;;;;;;4373217;32;20395;-42
2021/11/19 05:55:40;;;;;;;;;;;2.20;54.30;;;;;;4373138;32;20039;-42
2021/11/19 05:58:07;;;;;;;;;;;2.20;54.50;;;;;;4359746;32;19966;-42
2021/11/19 06:00:40;;;;;;;;;;;2.20;54.90;;;;;;4372818;32;19966;-41
2021/11/19 06:03:06;;;;;;;;;;;2.20;55.00;;;;;;4373139;32;19992;-43
2021/11/19 06:05:32;;;;;;;;;;;2.20;54.90;;;;;;4372801;32;20406;-41
2021/11/19 06:07:58;;;;;;;;;;;2.20;54.90;;;;;;4372584;32;19970;-42
2021/11/19 06:10:28;;;;;;;;;;;2.20;54.80;;;;;;4372936;32;20047;-41
2021/11/19 06:12:58;;;;;;;;;;;2.30;54.90;;;;;;4347078;32;20398;-43
2021/11/19 06:15:28;;;;;;;;;;;2.30;55.00;;;;;;4358937;32;20122;-42
2021/11/19 06:17:58;;;;;;;;;;;2.30;54.70;;;;;;4372883;32;19962;-42
2021/11/19 06:20:27;;;;;;;;;;;2.30;55.00;;;;;;4372341;32;20479;-43
2021/11/19 06:22:57;;;;;;;;;;;2.40;55.20;;;;;;4373184;32;20538;-42
2021/11/19 06:25:27;;;;;;;;;;;2.40;55.20;;;;;;4372498;32;19965;-43
2021/11/19 06:27:54;;;;;;;;;;;2.40;55.50;;;;;;4370644;32;20050;-41
2021/11/19 06:30:21;;;;;;;;;;;2.40;55.60;;;;;;4372529;32;20040;-39
2021/11/19 06:32:48;;;;;;;;;;;2.50;55.50;;;;;;4370799;32;20000;-42
2021/11/19 06:35:14;;;;;;;;;;;2.50;55.50;;;;;;4372581;32;19970;-43
2021/11/19 06:37:41;;;;;;;;;;;2.50;55.40;;;;;;4379248;32;20401;-42
2021/11/19 06:40:10;;;;;;;;;;;2.50;55.50;;;;;;4387105;32;20455;-42
2021/11/19 06:42:36;;;;;;;;;;;2.50;55.70;;;;;;4387817;32;20078;-42
2021/11/19 06:45:03;;;;;;;;;;;2.50;55.90;;;;;;4373390;32;20540;-42
2021/11/19 06:47:30;;;;;;;;;;;2.50;55.90;;;;;;4373801;32;19974;-42
2021/11/19 06:49:57;;;;;;;;;;;2.50;56.00;;;;;;4387285;32;19974;-43
2021/11/19 06:52:23;;;;;;;;;;;2.50;56.10;;;;;;4387678;32;19966;-41
2021/11/19 06:54:50;;;;;;;;;;;2.50;56.40;;;;;;4387413;32;19997;-42
2021/11/19 06:57:16;;;;;;;;;;;2.50;56.50;;;;;;4387628;32;19970;-42
2021/11/19 06:59:43;;;;;;;;;;;2.60;56.60;;;;;;4387945;32;19993;-42
2021/11/19 07:02:09;;;;;;;;;;;2.60;56.60;;;;;;4387571;32;20095;-42
2021/11/19 07:04:36;;;;;;;;;;;2.60;56.50;;;;;;4354466;32;19994;-41
2021/11/19 07:07:06;;;;;;;;;;;2.60;56.40;;;;;;4354805;32;20474;-41
2021/11/19 07:09:33;;;;;;;;;;;2.60;56.50;;;;;;4354521;32;20348;-42
2021/11/19 07:12:00;;;;;;;;;;;2.60;56.60;;;;;;4355054;32;20093;-42
2021/11/19 07:14:27;;;;;;;;;;;2.60;57.30;;;;;;4354708;32;19986;-41
2021/11/19 07:16:53;;;;;;;;;;;2.60;56.60;;;;;;4356346;32;19970;-37
2021/11/19 07:19:20;;;;;;;;;;;2.60;56.50;;;;;;4357547;32;19966;-41
2021/11/19 07:21:47;;;;;;;;;;;2.60;56.40;;;;;;4357633;32;20053;-42
2021/11/19 07:24:13;;;;;;;;;;;2.60;56.30;;;;;;4357075;32;20565;-42
2021/11/19 07:26:39;;;;;;;;;;;2.60;56.40;;;;;;4357401;32;20082;-42
2021/11/19 07:29:06;;;;;;;;;;;2.60;56.60;;;;;;4357374;32;20073;-42
2021/11/19 07:31:32;;;;;;;;;;;2.60;56.80;;;;;;4357090;32;19970;-42
2021/11/19 07:33:59;;;;;;;;;;;2.60;56.80;;;;;;4357798;32;20121;-42
2021/11/19 07:36:25;;;;;;;;;;;2.70;56.80;;;;;;4357266;32;19974;-43
2021/11/19 07:38:53;;;;;;;;;;;2.70;56.60;;;;;;4357289;32;19978;-38
2021/11/19 07:41:20;;;;;;;;;;;2.60;56.50;;;;;;4360921;32;19969;-38
2021/11/19 07:43:46;;;;;;;;;;;2.60;56.80;;;;;;4374771;32;19973;-41
2021/11/19 07:46:14;;;;;;;;;;;2.60;57.00;;;;;;4374657;32;20471;-41
2021/11/19 07:48:41;;;;;;;;;;;2.60;56.90;;;;;;4374460;32;20359;-42
2021/11/19 07:51:10;;;;;;;;;;;2.60;56.90;;;;;;4374292;32;19968;-49
2021/11/19 07:53:37;;;;;;;;;;;2.60;57.10;;;;;;4374125;32;20440;-57
2021/11/19 07:56:04;;;;;;;;;;;2.70;57.30;;;;;;4374278;32;20005;-57
2021/11/19 07:58:30;;;;;;;;;;;2.70;57.50;;;;;;4374334;32;20048;-53
2021/11/19 08:00:57;;;;;;;;;;;2.70;57.80;;;;;;4374393;32;20124;-55
2021/11/19 08:03:24;;;;;;;;;;;2.70;57.90;;;;;;4374220;32;19981;-57
2021/11/19 08:05:52;;;;;;;;;;;2.70;57.80;;;;;;4374153;32;20001;-56
2021/11/19 08:08:19;;;;;;;;;;;2.70;58.00;;;;;;4360584;32;20507;-56
2021/11/19 08:10:45;;;;;;;;;;;2.70;58.30;;;;;;4374075;32;20074;-54
2021/11/19 08:13:11;;;;;;;;;;;2.60;58.20;;;;;;4374428;32;20032;-55
2021/11/19 08:15:37;;;;;;;;;;;2.70;58.40;;;;;;4373860;32;20481;-56
2021/11/19 08:18:09;;;;;;;;;;;2.60;58.30;;;;;;4373937;32;19969;-54
2021/11/19 08:20:39;;;;;;;;;;;2.60;58.30;;;;;;4364242;32;19969;-51
2021/11/19 08:23:10;;;;;;;;;;;2.60;58.80;;;;;;4374253;32;19965;-54
2021/11/19 08:25:37;;;;;;;;;;;2.60;58.60;;;;;;4373725;32;19962;-55
2021/11/19 08:28:03;;;;;;;;;;;2.60;59.00;;;;;;4371351;32;19974;-56
2021/11/19 08:30:33;;;;;;;;;;;2.60;59.10;;;;;;4372064;32;20471;-55
2021/11/19 08:33:00;;;;;;;;;;;2.60;59.10;;;;;;4372673;32;20049;-54
2021/11/19 08:35:27;;;;;;;;;;;2.70;59.10;;;;;;4372814;32;20016;-57
2021/11/19 08:37:54;;;;;;;;;;;2.70;59.00;;;;;;4375031;32;19968;-57
2021/11/19 08:40:21;;;;;;;;;;;2.80;59.10;;;;;;4388924;32;20046;-56
2021/11/19 08:42:47;;;;;;;;;;;2.90;59.20;;;;;;4373998;32;19999;-57
2021/11/19 08:45:15;;;;;;;;;;;3.00;59.10;;;;;;4389183;32;19985;-58
2021/11/19 08:47:42;;;;;;;;;;;3.00;59.00;;;;;;4388371;32;19970;-54
2021/11/19 08:50:09;;;;;;;;;;;3.10;58.90;;;;;;4388732;32;20347;-58
2021/11/19 08:52:35;;;;;;;;;;;3.20;59.00;;;;;;4388684;32;19973;-57
2021/11/19 08:55:03;;;;;;;;;;;3.20;58.80;;;;;;4388513;32;19977;-57
2021/11/19 08:57:30;;;;;;;;;;;3.30;59.10;;;;;;4374616;32;19962;-54
2021/11/19 08:59:56;;;;;;;;;;;3.30;58.90;;;;;;4388891;32;19973;-56
2021/11/19 09:02:23;;;;;;;;;;;3.40;58.70;;;;;;4388638;32;20013;-54
2021/11/19 09:04:49;;;;;;;;;;;3.50;58.30;;;;;;4388728;32;20000;-47
2021/11/19 09:07:16;;;;;;;;;;;3.40;58.40;;;;;;4374567;32;20013;-53
2021/11/19 09:09:43;;;;;;;;;;;3.50;58.60;;;;;;4374194;32;19970;-55
2021/11/19 09:12:10;;;;;;;;;;;3.60;58.70;;;;;;4374190;32;19982;-55
2021/11/19 09:14:36;;;;;;;;;;;3.60;58.50;;;;;;4374026;32;19966;-56
2021/11/19 09:17:32;;;;;;;;;;;3.60;58.30;;;;;;4387900;32;20478;-58
2021/11/19 09:20:00;;;;;;;;;;;3.70;58.40;;;;;;4387653;32;19997;-58
2021/11/19 09:22:37;;;;;;;;;;;3.70;58.30;;;;;;4388195;32;20061;-56
2021/11/19 09:25:09;;;;;;;;;;;3.80;58.30;;;;;;4388130;32;20101;-54
2021/11/19 09:27:36;;;;;;;;;;;3.90;58.20;;;;;;4374277;32;19968;-50
2021/11/19 09:30:14;;;;;;;;;;;4.00;57.80;;;;;;4328322;33;20099;-53
2021/11/19 09:32:50;;;;;;;;;;;4.00;57.40;;;;;;4340752;33;19990;-55
2021/11/19 09:35:17;;;;;;;;;;;4.00;57.20;;;;;;4340601;33;19978;-50
2021/11/19 09:37:45;;;;;;;;;;;4.10;57.10;;;;;;4340851;33;20002;-49
2021/11/19 09:40:11;;;;;;;;;;;4.20;57.30;;;;;;4340462;32;19994;-45
2021/11/19 09:43:17;;;;;;;;;;;4.20;57.10;;;;;;4340770;33;20537;-55
2021/11/19 09:46:10;;;;;;;;;;;4.30;57.00;;;;;;4285340;33;20068;-50
2021/11/19 09:48:51;;;;;;;;;;;4.40;56.80;;;;;;4340677;33;19969;-49
2021/11/19 09:51:54;;;;;;;;;;;4.50;56.50;;;;;;4340430;33;20084;-46
2021/11/19 09:54:29;;;;;;;;;;;4.60;56.30;;;;;;4340393;33;19983;-49
2021/11/19 09:57:20;;;;;;;;;;;4.80;56.20;;;;;;4340596;33;19970;-50
2021/11/19 09:59:49;;;;;;;;;;;4.80;55.70;;;;;;4340421;33;20438;-52
2021/11/19 10:02:49;;;;;;;;;;;4.90;55.40;;;;;;4373028;32;20046;-52
2021/11/19 10:05:26;;;;;;;;;;;5.00;55.00;;;;;;4387749;32;20153;-53
2021/11/19 10:07:55;;;;;;;;;;;5.00;54.70;;;;;;4361941;32;20056;-52
2021/11/19 10:10:37;;;;;;;;;;;5.00;54.80;;;;;;4388001;32;20001;-49
2021/11/19 10:13:12;;;;;;;;;;;5.00;54.80;;;;;;4388082;32;19969;-40
2021/11/19 10:16:00;;;;;;;;;;;4.90;54.10;;;;;;4374009;32;20649;-47
2021/11/19 10:18:43;;;;;;;;;;;4.80;54.50;;;;;;4387614;32;19969;-58
2021/11/19 10:21:24;;;;;;;;;;;4.80;54.80;;;;;;4377294;32;19973;-59
2021/11/19 10:23:52;;;;;;;;;;;4.70;54.90;;;;;;4372419;32;19986;-43
2021/11/19 10:26:32;;;;;;;;;;;4.70;54.80;;;;;;4372784;32;19970;-42
2021/11/19 10:29:05;;;;;;;;;;;4.70;54.70;;;;;;4372735;32;20004;-44
2021/11/19 10:31:31;;;;;;;;;;;4.70;55.00;;;;;;4372686;32;19963;-50
2021/11/19 10:34:02;;;;;;;;;;;4.60;54.70;;;;;;4372801;32;19968;-51
2021/11/19 10:36:37;;;;;;;;;;;4.60;54.90;;;;;;4358220;32;20377;-53
2021/11/19 10:39:38;;;;;;;;;;;4.50;54.90;;;;;;4372641;32;19969;-50
2021/11/19 10:42:42;;;;;;;;;;;4.50;54.90;;;;;;4372718;32;19958;-51
2021/11/19 10:45:17;;;;;;;;;;;4.40;55.20;;;;;;4358439;32;19981;-53
2021/11/19 10:47:49;;;;;;;;;;;4.40;55.30;;;;;;4372262;32;19970;-49
2021/11/19 10:50:25;;;;;;;;;;;4.50;55.30;;;;;;4372119;32;20009;-50
2021/11/19 10:52:57;;;;;;;;;;;4.50;55.40;;;;;;4375003;32;19968;-50
2021/11/19 10:55:33;;;;;;;;;;;4.50;55.30;;;;;;4361771;32;19965;-53
2021/11/19 10:58:37;;;;;;;;;;;4.50;55.00;;;;;;4375010;32;20410;-47
2021/11/19 11:01:03;;;;;;;;;;;4.50;55.40;;;;;;4375275;32;19988;-44
2021/11/19 11:03:38;;;;;;;;;;;4.50;55.40;;;;;;4374738;32;19978;-44
2021/11/19 11:06:07;;;;;;;;;;;4.50;55.30;;;;;;4375562;32;20043;-43
2021/11/19 11:08:35;;;;;;;;;;;4.60;55.30;;;;;;4375508;32;20091;-43
2021/11/19 11:11:06;;;;;;;;;;;4.60;55.00;;;;;;4361516;32;19972;-43
2021/11/19 11:13:55;;;;;;;;;;;4.60;55.00;;;;;;4375490;32;20001;-44
2021/11/19 11:16:23;;;;;;;;;;;4.60;55.00;;;;;;4374705;32;20426;-43
2021/11/19 11:18:57;;;;;;;;;;;4.60;54.90;;;;;;4374745;32;20043;-46
2021/11/19 11:21:35;;;;;;;;;;;4.60;54.70;;;;;;4386894;32;19966;-45
2021/11/19 11:24:37;;;;;;;;;;;4.60;54.90;;;;;;4390007;32;19962;-43
2021/11/19 11:27:28;;;;;;;;;;;4.50;54.90;;;;;;4390456;32;19977;-45
2021/11/19 11:30:13;;;;;;;;;;;4.50;54.90;;;;;;4376253;32;20417;-47
2021/11/19 11:32:54;;;;;;;;;;;4.60;55.00;;;;;;4389285;32;20509;-47
2021/11/19 11:35:50;;;;;;;;;;;4.50;55.10;;;;;;4389610;32;19962;-49
2021/11/19 11:38:50;;;;;;;;;;;4.50;55.00;;;;;;4375517;32;19973;-48
2021/11/19 11:41:47;;;;;;;;;;;4.50;55.10;;;;;;4389711;32;19976;-48
2021/11/19 11:44:19;;;;;;;;;;;4.50;55.30;;;;;;4373418;32;19985;-51
2021/11/19 11:46:50;;;;;;;;;;;4.50;55.20;;;;;;4389749;32;19991;-51
2021/11/19 11:49:34;;;;;;;;;;;4.60;55.00;;;;;;4389722;32;20030;-51
2021/11/19 11:52:25;;;;;;;;;;;4.60;54.80;;;;;;4389635;32;19997;-50
2021/11/19 11:55:03;;;;;;;;;;;4.60;54.50;;;;;;4375752;32;19978;-54
2021/11/19 11:57:31;;;;;;;;;;;4.60;55.10;;;;;;4389691;32;20000;-51
2021/11/19 12:00:09;;;;;;;;;;;4.60;54.30;;;;;;4375136;32;19966;-54
2021/11/19 12:02:44;;;;;;;;;;;4.60;54.40;;;;;;4389312;32;20000;-52
2021/11/19 12:05:32;;;;;;;;;;;4.60;54.40;;;;;;4389419;32;20398;-50
2021/11/19 12:08:17;;;;;;;;;;;4.50;54.40;;;;;;4388644;32;19969;-52
2021/11/19 12:11:20;;;;;;;;;;;4.60;54.40;;;;;;4389310;32;19958;-54
2021/11/19 12:13:49;;;;;;;;;;;4.60;54.30;;;;;;4388915;32;20051;-52
2021/11/19 12:16:49;;;;;;;;;;;4.50;54.20;;;;;;4375245;32;19973;-51
2021/11/19 12:19:40;;;;;;;;;;;4.50;54.40;;;;;;4388836;32;20481;-55
2021/11/19 12:22:31;;;;;;;;;;;4.50;54.20;;;;;;4373823;32;20494;-56
2021/11/19 12:25:38;;;;;;;;;;;4.50;54.00;;;;;;4349292;32;19954;-52
2021/11/19 12:28:10;;;;;;;;;;;4.50;53.80;;;;;;4361541;32;20398;-57
2021/11/19 12:30:50;;;;;;;;;;;4.50;53.60;;;;;;4359730;32;19984;-58
2021/11/19 12:33:29;;;;;;;;;;;4.40;53.50;;;;;;4360488;32;20384;-57
2021/11/19 12:36:27;;;;;;;;;;;4.40;53.40;;;;;;4360142;32;20016;-55
2021/11/19 12:39:04;;;;;;;;;;;4.40;54.00;;;;;;4326632;33;20003;-58
2021/11/19 12:41:30;;;;;;;;;;;4.50;53.40;;;;;;4327401;33;20562;-56
2021/11/19 12:44:40;;;;;;;;;;;4.50;52.80;;;;;;4326754;33;20462;-59
2021/11/19 12:47:35;;;;;;;;;;;4.50;52.70;;;;;;4268804;33;19984;-46
2021/11/19 12:50:35;;;;;;;;;;;4.50;52.50;;;;;;4268510;33;20103;-58
2021/11/19 12:53:16;;;;;;;;;;;4.40;52.60;;;;;;4259408;33;20002;-57
2021/11/19 12:56:04;;;;;;;;;;;4.50;52.80;;;;;;4268386;33;20487;-40
2021/11/19 12:58:34;;;;;;;;;;;4.50;52.50;;;;;;4268232;33;20091;-56
2021/11/19 13:01:26;;;;;;;;;;;4.50;51.90;;;;;;4268099;33;19984;-58
2021/11/19 13:04:20;;;;;;;;;;;4.50;52.00;;;;;;4268243;33;19968;-54
2021/11/19 13:07:07;;;;;;;;;;;4.60;52.20;;;;;;4267887;33;19984;-57
2021/11/19 13:09:43;;;;;;;;;;;4.60;51.90;;;;;;4268668;33;20437;-57
2021/11/19 13:12:39;;;;;;;;;;;4.60;51.90;;;;;;4268187;33;20591;-56
2021/11/19 13:15:21;;;;;;;;;;;4.60;51.80;;;;;;4279652;33;20029;-57
2021/11/19 13:18:08;;;;;;;;;;;4.60;51.90;;;;;;4296573;33;20346;-56
2021/11/19 13:20:52;;;;;;;;;;;4.70;51.80;;;;;;4303598;33;20087;-59
2021/11/19 13:23:41;;;;;;;;;;;4.70;51.30;;;;;;4361772;32;19973;-53
2021/11/19 13:26:13;;;;;;;;;;;4.80;51.30;;;;;;4373414;32;19966;-58
2021/11/19 13:28:58;;;;;;;;;;;5.00;51.40;;;;;;4373190;32;20486;-58
2021/11/19 13:31:27;;;;;;;;;;;5.10;51.20;;;;;;4373004;32;19989;-56
2021/11/19 13:34:06;;;;;;;;;;;5.20;51.00;;;;;;4372979;32;20458;-56
2021/11/19 13:36:44;;;;;;;;;;;5.30;50.60;;;;;;4372882;32;20459;-54
2021/11/19 13:39:31;;;;;;;;;;;5.40;50.30;;;;;;4373029;32;20056;-57
2021/11/19 13:42:02;;;;;;;;;;;5.40;50.00;;;;;;4372919;32;19973;-58
2021/11/19 13:45:09;;;;;;;;;;;5.50;49.90;;;;;;4374094;32;19962;-56
2021/11/19 13:47:56;;;;;;;;;;;5.50;49.90;;;;;;4372873;32;19990;-54
2021/11/19 13:50:28;;;;;;;;;;;5.60;50.00;;;;;;4372345;32;20491;-55
2021/11/19 13:53:00;;;;;;;;;;;5.60;50.00;;;;;;4372674;32;20034;-54
2021/11/19 13:55:41;;;;;;;;;;;5.60;49.90;;;;;;4372547;32;19970;-54
2021/11/19 13:58:26;;;;;;;;;;;5.70;50.10;;;;;;4372841;32;19962;-56
2021/11/19 14:01:14;;;;;;;;;;;5.70;50.10;;;;;;4346742;32;19978;-52
2021/11/19 14:03:41;;;;;;;;;;;5.80;50.10;;;;;;4372566;32;20088;-51
2021/11/19 14:06:33;;;;;;;;;;;5.80;50.00;;;;;;4358695;32;20021;-47
2021/11/19 14:09:05;;;;;;;;;;;5.80;50.00;;;;;;4370249;32;20082;-48
2021/11/19 14:11:32;;;;;;;;;;;5.90;50.10;;;;;;4372611;32;20000;-49
2021/11/19 14:13:58;;;;;;;;;;;5.90;50.00;;;;;;4372404;32;19977;-50
2021/11/19 14:16:33;;;;;;;;;;;5.90;49.80;;;;;;4372121;32;19985;-50
2021/11/19 14:19:13;;;;;;;;;;;5.90;49.70;;;;;;4358305;32;20366;-50
2021/11/19 14:22:15;;;;;;;;;;;5.80;49.60;;;;;;4358617;32;20388;-52
2021/11/19 14:24:58;;;;;;;;;;;5.80;49.40;;;;;;4357550;32;20001;-51
2021/11/19 14:27:39;;;;;;;;;;;5.60;49.20;;;;;;4360378;32;20460;-50
2021/11/19 14:30:31;;;;;;;;;;;5.50;49.30;;;;;;4346850;32;19977;-56
2021/11/19 14:33:00;;;;;;;;;;;5.40;49.30;;;;;;4360536;32;20021;-54
2021/11/19 14:35:33;;;;;;;;;;;5.40;49.40;;;;;;4360395;32;20004;-57
2021/11/19 14:38:02;;;;;;;;;;;5.30;49.50;;;;;;4368985;32;20614;-52
2021/11/19 14:40:41;;;;;;;;;;;5.20;49.60;;;;;;4361583;32;19974;-54
2021/11/19 14:43:07;;;;;;;;;;;5.20;49.90;;;;;;4375255;32;19970;-56
2021/11/19 14:45:38;;;;;;;;;;;5.10;49.90;;;;;;4373620;32;20190;-58
2021/11/19 14:48:10;;;;;;;;;;;5.10;49.80;;;;;;4361382;32;20021;-56
2021/11/19 14:53:56;;;;;;;;;;;5.00;49.80;;;;;;4374864;32;19962;-58
2021/11/19 14:56:27;;;;;;;;;;;5.00;50.00;;;;;;4375276;32;19958;-56
2021/11/19 14:59:06;;;;;;;;;;;5.00;50.10;;;;;;4374871;32;19965;-53
2021/11/19 15:01:37;;;;;;;;;;;5.00;49.90;;;;;;4375045;32;19989;-55
2021/11/19 15:04:17;;;;;;;;;;;5.00;49.80;;;;;;4360861;32;20067;-55
2021/11/19 15:06:44;;;;;;;;;;;5.00;49.30;;;;;;4374958;32;20045;-54
2021/11/19 15:09:22;;;;;;;;;;;5.00;49.50;;;;;;4375569;32;19986;-55